Latest Weather Observations for Learmonth

IDW60801

Issued at 1:33 pm WST Monday 29 August 2016 (issued every 30 minutes, with the page automatically refreshed every 10 minutes)

About weather observations | Map of weather stations | Latest weather observations for WA | Other Formats
Station Details ID: 005007 Name: LEARMONTH AIRPORT Lat: -22.24 Lon: 114.10 Height: 5.0 m
Data from the previous 72 hours. | See also: Recent months at Learmonth
Date/Time
WST
Temp
°C
App
Temp
°C
Dew
Point
°C
Rel
Hum
%
Delta-T
°C
Wind Press
QNH
hPa
Press
MSL
hPa
Rain since
9am
mm
Dir  Spd
km/h
Gust
km/h
Spd
kts
Gust
kts
29/01:00pm 22.2 16.8 4.7 32 8.6 SE 22 35 12 19 1014.0 - 0.0
29/12:30pm 22.6 17.3 4.8 31 8.8 SE 22 35 12 19 1014.3 - 0.0
29/12:00pm 22.9 18.2 5.3 32 8.8 SSE 19 32 10 17 1014.9 1014.8 0.0
29/11:30am 21.2 15.6 5.2 35 7.9 SSE 24 37 13 20 1015.3 - 0.0
29/11:00am 21.1 15.8 5.0 35 7.9 SE 22 32 12 17 1015.6 - 0.0
29/10:30am 21.2 15.2 5.2 35 7.9 SSE 26 35 14 19 1015.9 - 0.0
29/10:00am 20.3 14.3 5.5 38 7.3 SE 26 33 14 18 1015.9 - 0.0
29/09:30am 20.3 14.1 6.0 39 7.1 SSE 28 33 15 18 1016.0 - 0.0
29/09:00am 19.1 13.2 7.7 47 5.8 SSE 28 35 15 19 1016.0 1015.9 0.0
29/08:30am 18.6 13.9 9.3 54 4.9 SSE 24 32 13 17 1015.9 - 0.0
29/08:00am 16.4 12.7 10.3 67 3.2 S 20 28 11 15 1015.8 - 0.0
29/07:30am 14.7 11.8 11.1 79 1.9 S 17 22 9 12 1015.4 - 0.0
29/07:00am 13.3 11.2 11.0 86 1.2 SW 13 19 7 10 1015.2 - 0.0
29/06:30am 11.6 9.6 10.2 91 0.7 S 11 13 6 7 1015.0 - 0.0
29/06:00am 12.3 10.4 10.6 89 0.9 SW 11 15 6 8 1014.7 1014.6 0.0
29/05:30am 11.5 9.1 10.1 91 0.7 SW 13 15 7 8 1014.3 - 0.0
29/05:00am 11.6 9.6 10.0 90 0.8 SW 11 13 6 7 1014.1 - 0.0
29/04:30am 11.4 8.9 9.6 89 0.9 SW 13 15 7 8 1013.9 - 0.0
29/04:00am 11.1 8.5 9.3 89 0.9 WSW 13 15 7 8 1013.9 - 0.0
29/03:30am 10.8 8.2 9.2 90 0.8 SSW 13 15 7 8 1013.9 - 0.0
29/03:00am 11.2 9.3 9.2 87 1.0 SW 9 13 5 7 1013.8 1013.7 0.0
29/02:30am 10.6 8.3 9.0 90 0.8 SSW 11 13 6 7 1013.8 - 0.0
29/02:00am 11.6 8.6 9.4 86 1.1 SSW 15 19 8 10 1014.0 - 0.0
29/01:30am 12.5 9.1 9.3 81 1.6 SSW 17 20 9 11 1014.2 - 0.0
29/01:00am 12.7 8.9 9.1 79 1.8 SSW 19 22 10 12 1014.0 - 0.0
29/12:30am 12.8 9.4 9.0 78 1.9 SSW 17 20 9 11 1014.3 - 0.0
29/12:00am 13.1 9.6 8.7 74 2.2 SW 17 22 9 12 1014.6 1014.5 0.0
 
Date/Time
WST
Temp
°C
App
Temp
°C
Dew
Point
°C
Rel
Hum
%
Delta-T
°C
Wind Press
QNH
hPa
Press
MSL
hPa
Rain since
9am
mm
Dir  Spd
km/h
Gust
km/h
Spd
kts
Gust
kts
28/11:30pm 11.8 8.6 8.6 81 1.6 SW 15 17 8 9 1014.8 - 0.0
28/11:00pm 13.8 10.8 9.3 74 2.3 SW 15 17 8 9 1014.9 - 0.0
28/10:30pm 14.8 11.4 9.3 69 2.8 WSW 17 20 9 11 1014.8 - 0.0
28/10:00pm 14.6 11.7 9.5 71 2.6 WSW 15 17 8 9 1014.8 - 0.0
28/09:30pm 15.0 12.1 9.6 70 2.8 WSW 15 17 8 9 1014.8 - 0.0
28/09:00pm 16.1 12.7 9.3 64 3.5 SW 17 20 9 11 1014.7 1014.6 0.0
28/08:30pm 16.7 13.2 8.7 59 4.1 SW 17 22 9 12 1014.6 - 0.0
28/08:00pm 17.2 13.1 7.9 54 4.7 SW 19 24 10 13 1014.2 - 0.0
28/07:30pm 17.3 13.6 8.1 54 4.7 SW 17 20 9 11 1013.9 - 0.0
28/07:00pm 18.0 14.0 8.2 52 5.0 SW 19 24 10 13 1013.6 - 0.0
28/06:30pm 18.6 14.6 8.1 50 5.4 SW 19 24 10 13 1013.2 - 0.0
28/06:00pm 20.0 14.7 7.0 43 6.6 SW 24 26 13 14 1013.0 1012.9 0.0
28/05:30pm 21.3 16.0 7.0 39 7.3 SSW 24 32 13 17 1012.7 - 0.0
28/05:00pm 22.3 16.8 7.5 38 7.7 SW 26 33 14 18 1012.5 - 0.0
28/04:30pm 22.9 17.1 8.1 38 7.8 SW 28 41 15 22 1012.2 - 0.0
28/04:29pm 22.9 17.1 8.1 38 7.8 SW 28 41 15 22 1012.2 - 0.0
28/04:00pm 23.9 20.5 7.8 35 8.5 SW 15 20 8 11 1012.2 - 0.0
28/03:30pm 24.9 20.6 7.7 33 9.1 WSW 20 35 11 19 1012.2 - 0.0
28/03:00pm 24.0 19.0 7.9 35 8.5 SW 24 33 13 18 1012.1 1012.0 0.0
28/02:30pm 24.8 20.8 8.4 35 8.8 WSW 19 26 10 14 1012.1 - 0.0
28/02:00pm 23.1 19.1 8.4 39 7.8 SW 19 30 10 16 1012.7 - 0.0
28/01:30pm 23.5 19.6 8.7 39 7.9 SW 19 30 10 16 1013.1 - 0.0
28/01:00pm 23.6 19.1 10.1 42 7.4 S 24 33 13 18 1013.4 - 0.0
28/12:30pm 22.2 18.3 9.6 44 6.8 SSE 20 35 11 19 1013.6 - 0.0
28/12:00pm 22.7 17.9 10.3 45 6.8 S 26 39 14 21 1014.2 1014.1 0.0
28/11:30am 21.9 17.9 10.3 47 6.3 SSE 22 32 12 17 1014.7 - 0.0
28/11:00am 22.0 17.3 10.7 48 6.2 SSE 26 37 14 20 1014.9 - 0.0
28/10:30am 21.0 16.8 11.2 53 5.4 SE 24 32 13 17 1015.4 - 0.0
28/10:00am 19.9 16.1 11.3 57 4.7 SSE 22 35 12 19 1015.8 - 0.0
28/09:30am 20.0 17.2 13.1 64 3.9 SE 20 26 11 14 1015.9 - 0.0
28/09:00am 18.7 16.0 13.4 71 3.0 S 20 26 11 14 1015.9 1015.8 0.4
28/08:30am 18.2 17.0 14.0 76 2.4 S 13 22 7 12 1015.8 - 0.4
28/08:00am 16.7 15.9 14.1 85 1.5 SSW 11 15 6 8 1015.4 - 0.4
28/07:30am 15.9 15.5 14.0 88 1.1 SW 9 11 5 6 1015.1 - 0.4
28/07:00am 14.6 13.9 13.3 92 0.7 SW 9 11 5 6 1014.4 - 0.4
28/06:30am 15.2 14.9 14.3 94 0.5 SW 9 11 5 6 1014.0 - 0.4
28/06:00am 14.7 13.8 13.8 94 0.5 SW 11 11 6 6 1013.7 1013.6 0.4
28/05:30am 15.6 14.6 14.5 93 0.6 SW 13 13 7 7 1013.3 - 0.4
28/05:00am 16.3 15.9 15.1 93 0.7 SW 11 11 6 6 1013.1 - 0.4
28/04:30am 16.5 16.5 15.3 93 0.7 SW 9 9 5 5 1013.3 - 0.4
28/04:00am 16.6 17.0 15.4 93 0.7 SSW 7 9 4 5 1013.4 - 0.4
28/03:30am 16.7 17.2 15.5 93 0.7 SW 7 9 4 5 1013.4 - 0.4
28/03:00am 16.5 17.3 15.8 96 0.4 SW 6 7 3 4 1013.4 1013.3 0.4
28/02:30am 16.5 16.6 15.6 94 0.5 S 9 13 5 7 1013.4 - 0.4
28/02:17am 16.5 15.5 15.6 94 0.5 S 15 20 8 11 1013.6 - 0.4
28/02:12am 16.5 15.9 15.6 94 0.5 S 13 20 7 11 1013.7 - 0.4
28/02:00am 16.4 15.6 16.1 98 0.2 SSE 15 19 8 10 1013.7 - 0.4
28/01:35am 16.9 15.2 16.2 96 0.4 S 20 26 11 14 1013.8 - 0.2
28/01:30am 17.0 15.3 16.2 95 0.5 S 20 26 11 14 1013.7 - 0.2
28/01:00am 17.6 18.2 16.9 96 0.4 S 9 11 5 6 1013.6 - 0.2
28/12:56am 17.6 17.9 16.9 96 0.4 S 11 11 6 6 1013.5 - 0.2
28/12:32am 17.6 17.1 16.9 96 0.4 S 15 19 8 10 1013.5 - 0.0
28/12:30am 17.6 17.1 16.8 95 0.5 S 15 19 8 10 1013.5 - 0.0
28/12:04am 18.0 17.5 17.0 94 0.6 S 15 20 8 11 1013.6 - 0.0
28/12:00am 18.1 18.0 16.9 93 0.7 SSW 13 20 7 11 1013.7 1013.6 0.0
 
Date/Time
WST
Temp
°C
App
Temp
°C
Dew
Point
°C
Rel
Hum
%
Delta-T
°C
Wind Press
QNH
hPa
Press
MSL
hPa
Rain since
9am
mm
Dir  Spd
km/h
Gust
km/h
Spd
kts
Gust
kts
27/11:30pm 18.2 18.5 16.9 92 0.8 SSW 11 13 6 7 1013.6 - 0.0
27/11:20pm 18.0 18.2 16.8 93 0.7 SSW 11 13 6 7 1013.7 - 0.0
27/11:13pm 17.9 18.5 16.9 94 0.6 SSW 9 13 5 7 1013.6 - 0.0
27/11:00pm 18.0 17.8 16.8 93 0.7 SSW 13 17 7 9 1013.7 - 0.0
27/10:39pm 17.5 18.1 16.7 95 0.5 SSW 9 13 5 7 1013.8 - 0.0
27/10:30pm 17.6 18.1 16.6 94 0.6 SSW 9 9 5 5 1013.7 - 0.0
27/10:00pm 17.6 17.4 16.8 95 0.5 SW 13 13 7 7 1013.7 - 0.0
27/09:30pm 17.7 18.3 16.7 94 0.6 SW 9 11 5 6 1013.8 - 0.0
27/09:00pm 18.1 18.3 16.8 92 0.8 SSW 11 13 6 7 1013.6 1013.5 0.0
27/08:30pm 18.6 18.6 17.1 91 0.9 SW 13 17 7 9 1013.7 - 0.0
27/08:00pm 19.1 19.1 17.3 89 1.1 SSW 13 17 7 9 1013.3 - 0.0
27/07:30pm 19.6 19.4 17.5 88 1.3 SSW 15 22 8 12 1013.0 - 0.0
27/07:00pm 20.4 19.5 17.8 85 1.6 SSW 19 26 10 14 1012.4 - 0.0
27/06:30pm 21.4 20.2 18.4 83 1.9 SSW 22 32 12 17 1012.1 - 0.0
27/06:00pm 22.7 21.1 17.4 72 3.3 W 22 32 12 17 1011.9 1011.8 0.0
27/05:30pm 23.6 21.4 16.9 66 4.1 W 24 35 13 19 1011.7 - 0.0
27/05:00pm 23.3 20.1 16.2 64 4.3 WSW 28 41 15 22 1011.6 - 0.0
27/04:30pm 25.3 23.6 17.1 60 5.1 W 22 28 12 15 1011.3 - 0.0
27/04:00pm 24.6 23.7 18.3 68 4.0 NW 20 24 11 13 1011.2 - 0.0
27/03:30pm 24.0 22.6 17.9 68 3.8 W 22 30 12 16 1011.3 - 0.0
27/03:00pm 24.2 22.7 17.8 67 4.0 WNW 22 30 12 16 1011.4 1011.3 0.0
27/02:30pm 24.3 22.2 18.1 68 3.9 W 26 35 14 19 1011.5 - 0.0
27/02:11pm 22.4 21.4 18.8 80 2.3 WNW 22 35 12 19 1011.8 - 0.0
27/02:00pm 21.8 19.8 18.3 80 2.2 WNW 26 35 14 19 1012.1 - 0.0
27/01:55pm 21.4 19.3 18.9 86 1.6 W 28 35 15 19 1012.2 - 0.0
27/01:53pm 21.9 20.2 19.9 88 1.3 W 28 35 15 19 1012.2 - 0.0
27/01:37pm 21.9 16.8 18.6 81 2.1 WSW 43 48 23 26 1012.1 - 0.0
27/01:31pm 25.6 21.2 15.1 52 6.3 W 32 54 17 29 1012.1 - 0.0
27/01:30pm 25.7 22.0 14.9 51 6.5 W 28 39 15 21 1012.0 - 0.0
27/01:00pm 26.4 22.7 15.0 49 6.9 NW 28 37 15 20 1012.1 - 0.0
27/12:30pm 27.0 22.6 14.1 45 7.7 NW 30 43 16 23 1012.3 - 0.0
27/12:00pm 27.3 24.2 13.4 42 8.2 NW 22 32 12 17 1012.7 1012.6 0.0
27/11:30am 28.3 23.9 12.8 38 9.1 NW 28 37 15 20 1013.0 - 0.0
27/11:00am 28.1 24.2 13.2 39 8.8 NNW 26 33 14 18 1013.2 - 0.0
27/10:30am 27.0 22.7 12.1 39 8.6 NNW 26 35 14 19 1013.4 - 0.0
27/10:00am 25.3 23.5 15.9 56 5.7 NNE 20 30 11 16 1013.7 - 0.0
27/09:30am 25.0 22.7 15.8 56 5.6 N 22 28 12 15 1013.8 - 0.0
27/09:00am 24.2 22.9 16.9 63 4.5 N 19 22 10 12 1013.6 1013.5 0.0
27/08:30am 23.1 21.7 16.9 68 3.8 N 20 26 11 14 1013.6 - 0.0
27/08:00am 21.7 20.7 17.5 77 2.6 N 19 26 10 14 1013.4 - 0.0
27/07:30am 20.8 20.2 17.5 81 2.0 N 17 22 9 12 1013.0 - 0.0
27/07:00am 18.5 17.6 16.8 90 1.0 N 17 19 9 10 1013.2 - 0.0
27/06:30am 17.4 17.0 16.2 93 0.7 N 13 15 7 8 1012.9 - 0.0
27/06:00am 17.5 17.5 16.3 93 0.7 NNW 11 13 6 7 1012.8 1012.7 0.0
27/05:30am 17.9 17.7 16.6 92 0.8 NNW 13 15 7 8 1012.6 - 0.0
27/05:00am 18.0 17.8 16.7 92 0.8 NNW 13 15 7 8 1012.5 - 0.0
27/04:30am 17.1 16.5 15.7 91 0.8 N 13 15 7 8 1012.5 - 0.0
27/04:00am 17.3 16.8 15.8 91 0.9 N 13 15 7 8 1012.5 - 0.0
27/03:30am 17.2 16.2 15.7 91 0.9 N 15 17 8 9 1012.5 - 0.0
27/03:00am 16.8 15.2 14.9 88 1.1 N 17 17 9 9 1012.7 1012.6 0.0
27/02:30am 16.7 16.2 13.9 83 1.6 NNW 9 13 5 7 1012.9 - 0.0
27/02:00am 15.9 15.6 14.5 91 0.8 N 9 9 5 5 1013.1 - 0.0
27/01:30am 15.4 16.0 14.3 93 0.6 NNW 4 6 2 3 1013.3 - 0.0
27/01:00am 15.9 17.2 14.0 88 1.1 CALM 0 4 0 2 1013.5 - 0.0
27/12:30am 16.6 16.3 14.3 86 1.3 NNW 9 11 5 6 1013.4 - 0.0
27/12:00am 15.8 14.9 13.8 88 1.1 N 11 13 6 7 1013.6 1013.5 0.0
 
Date/Time
WST
Temp
°C
App
Temp
°C
Dew
Point
°C
Rel
Hum
%
Delta-T
°C
Wind Press
QNH
hPa
Press
MSL
hPa
Rain since
9am
mm
Dir  Spd
km/h
Gust
km/h
Spd
kts
Gust
kts
26/11:30pm 15.3 14.1 13.9 91 0.8 N 13 17 7 9 1013.8 - 0.0
26/11:00pm 16.5 16.0 14.8 90 1.0 N 11 13 6 7 1013.9 - 0.0
26/10:30pm 15.7 14.4 13.6 87 1.2 N 13 17 7 9 1014.1 - 0.0
26/10:00pm 15.8 14.8 13.3 85 1.4 N 11 13 6 7 1014.0 - 0.0
26/09:30pm 15.9 15.1 14.0 88 1.1 N 11 13 6 7 1014.0 - 0.0
26/09:00pm 16.2 15.5 14.3 88 1.1 N 11 15 6 8 1014.4 1014.3 0.0
26/08:30pm 15.6 13.2 12.7 83 1.6 N 17 19 9 10 1014.3 - 0.0
26/08:00pm 16.0 14.2 12.2 78 2.1 NNW 13 15 7 8 1014.7 - 0.0
26/07:30pm 16.0 13.6 11.4 74 2.5 N 15 17 8 9 1014.6 - 0.0
26/07:00pm 16.9 15.1 12.2 74 2.6 N 13 15 7 8 1014.4 - 0.0
26/06:30pm 19.3 18.2 12.1 63 4.0 N 9 11 5 6 1014.5 - 0.0
26/06:00pm 20.3 18.2 9.6 50 5.7 N 11 13 6 7 1014.4 1014.3 0.0
26/05:30pm 21.8 19.8 11.4 51 5.8 NNE 13 17 7 9 1014.3 - 0.0
26/05:00pm 22.1 20.6 14.2 61 4.6 NE 15 19 8 10 1014.2 - 0.0
26/04:30pm 23.2 20.9 11.6 48 6.5 NE 15 19 8 10 1013.9 - 0.0
26/04:00pm 23.7 21.6 11.2 45 7.0 NE 13 20 7 11 1013.7 - 0.0
26/03:30pm 24.0 20.9 9.0 38 8.1 NNE 15 22 8 12 1013.7 - 0.0
26/03:00pm 23.9 21.3 9.3 39 7.9 NNE 13 19 7 10 1013.8 1013.7 0.0
26/02:30pm 24.4 21.7 10.3 41 7.8 N 15 19 8 10 1013.9 - 0.0
26/02:00pm 24.4 23.0 12.1 46 7.0 NNE 11 17 6 9 1014.3 - 0.0

Other Formats:

Comma delimited format used in spreadsheet applications
http://www.bom.gov.au/fwo/IDW60801/IDW60801.94302.axf

JavaScript Object Notation format (JSON) in row-major order
http://www.bom.gov.au/fwo/IDW60801/IDW60801.94302.json